sensor_id;sensor_type;location;lat;lon;timestamp;pressure;altitude;pressure_sealevel;temperature;humidity
56944;BME280;42848;42.524;12.052;2023-04-01T00:00:17;95947.34;;;12.15;100.00
56944;BME280;42848;42.524;12.052;2023-04-01T00:02:43;95946.25;;;12.04;100.00
56944;BME280;42848;42.524;12.052;2023-04-01T00:05:09;95939.63;;;12.17;100.00
56944;BME280;42848;42.524;12.052;2023-04-01T00:07:36;95943.59;;;12.36;100.00
56944;BME280;42848;42.524;12.052;2023-04-01T00:10:03;95944.50;;;11.96;100.00
56944;BME280;42848;42.524;12.052;2023-04-01T00:12:29;95931.00;;;12.15;100.00
56944;BME280;42848;42.524;12.052;2023-04-01T00:14:55;95924.78;;;12.15;100.00
56944;BME280;42848;42.524;12.052;2023-04-01T00:17:21;95898.72;;;12.30;100.00
56944;BME280;42848;42.524;12.052;2023-04-01T00:19:47;95905.47;;;12.04;100.00
56944;BME280;42848;42.524;12.052;2023-04-01T00:22:13;95904.69;;;11.76;100.00
56944;BME280;42848;42.524;12.052;2023-04-01T00:24:39;95914.13;;;11.94;100.00
56944;BME280;42848;42.524;12.052;2023-04-01T00:27:05;95915.50;;;11.88;100.00
56944;BME280;42848;42.524;12.052;2023-04-01T00:29:31;95898.25;;;11.96;100.00
56944;BME280;42848;42.524;12.052;2023-04-01T00:31:57;95910.34;;;11.83;100.00
56944;BME280;42848;42.524;12.052;2023-04-01T00:34:23;95904.69;;;12.19;100.00
56944;BME280;42848;42.524;12.052;2023-04-01T00:36:52;95900.56;;;12.10;100.00
56944;BME280;42848;42.524;12.052;2023-04-01T00:39:20;95904.00;;;12.22;100.00
56944;BME280;42848;42.524;12.052;2023-04-01T00:41:46;95895.47;;;12.08;100.00
56944;BME280;42848;42.524;12.052;2023-04-01T00:44:21;95883.25;;;12.02;100.00
56944;BME280;42848;42.524;12.052;2023-04-01T00:46:47;95870.97;;;11.92;100.00
56944;BME280;42848;42.524;12.052;2023-04-01T00:49:14;95870.13;;;12.20;100.00
56944;BME280;42848;42.524;12.052;2023-04-01T00:51:42;95883.06;;;11.95;100.00
56944;BME280;42848;42.524;12.052;2023-04-01T00:54:12;95873.00;;;12.11;100.00
56944;BME280;42848;42.524;12.052;2023-04-01T00:56:50;95880.66;;;12.21;100.00
56944;BME280;42848;42.524;12.052;2023-04-01T00:59:25;95870.47;;;12.18;100.00
56944;BME280;42848;42.524;12.052;2023-04-01T01:01:51;95871.16;;;12.15;100.00
56944;BME280;42848;42.524;12.052;2023-04-01T01:04:31;95880.38;;;12.11;100.00
56944;BME280;42848;42.524;12.052;2023-04-01T01:15:17;95883.97;;;12.31;100.00
56944;BME280;42848;42.524;12.052;2023-04-01T01:23:07;95891.00;;;12.32;100.00
56944;BME280;42848;42.524;12.052;2023-04-01T01:29:35;95883.28;;;12.34;100.00
56944;BME280;42848;42.524;12.052;2023-04-01T01:37:31;95863.88;;;12.35;100.00
56944;BME280;42848;42.524;12.052;2023-04-01T01:40:09;95863.19;;;12.38;100.00
56944;BME280;42848;42.524;12.052;2023-04-01T01:42:40;95851.50;;;12.38;100.00
56944;BME280;42848;42.524;12.052;2023-04-01T01:45:08;95847.63;;;12.39;100.00
56944;BME280;42848;42.524;12.052;2023-04-01T01:47:35;95847.81;;;12.30;100.00
56944;BME280;42848;42.524;12.052;2023-04-01T01:50:03;95850.47;;;12.27;100.00
56944;BME280;42848;42.524;12.052;2023-04-01T01:52:30;95844.84;;;12.35;100.00
56944;BME280;42848;42.524;12.052;2023-04-01T01:54:57;95846.66;;;12.31;100.00
56944;BME280;42848;42.524;12.052;2023-04-01T01:57:26;95857.03;;;12.41;100.00
56944;BME280;42848;42.524;12.052;2023-04-01T01:59:57;95849.22;;;12.40;100.00
56944;BME280;42848;42.524;12.052;2023-04-01T02:02:25;95840.50;;;12.34;100.00
56944;BME280;42848;42.524;12.052;2023-04-01T02:04:53;95840.72;;;12.10;100.00
56944;BME280;42848;42.524;12.052;2023-04-01T02:07:27;95830.00;;;12.17;100.00
56944;BME280;42848;42.524;12.052;2023-04-01T02:09:54;95831.31;;;12.23;100.00
56944;BME280;42848;42.524;12.052;2023-04-01T02:12:21;95825.00;;;12.35;100.00
56944;BME280;42848;42.524;12.052;2023-04-01T02:17:19;95813.50;;;12.26;100.00
56944;BME280;42848;42.524;12.052;2023-04-01T02:20:19;95816.38;;;12.33;100.00
56944;BME280;42848;42.524;12.052;2023-04-01T02:22:51;95810.06;;;12.29;100.00
56944;BME280;42848;42.524;12.052;2023-04-01T02:25:30;95802.63;;;12.26;100.00
56944;BME280;42848;42.524;12.052;2023-04-01T02:28:00;95815.09;;;12.27;100.00
56944;BME280;42848;42.524;12.052;2023-04-01T02:30:27;95816.84;;;12.03;100.00
56944;BME280;42848;42.524;12.052;2023-04-01T02:32:56;95821.31;;;12.11;100.00
56944;BME280;42848;42.524;12.052;2023-04-01T02:35:23;95821.50;;;12.18;100.00
56944;BME280;42848;42.524;12.052;2023-04-01T02:37:50;95825.34;;;12.02;100.00
56944;BME280;42848;42.524;12.052;2023-04-01T02:40:17;95829.03;;;12.09;100.00
56944;BME280;42848;42.524;12.052;2023-04-01T02:42:43;95826.56;;;12.04;100.00
56944;BME280;42848;42.524;12.052;2023-04-01T02:45:09;95832.19;;;12.11;100.00
56944;BME280;42848;42.524;12.052;2023-04-01T02:47:35;95845.88;;;12.15;100.00
56944;BME280;42848;42.524;12.052;2023-04-01T02:50:02;95849.66;;;12.10;100.00
56944;BME280;42848;42.524;12.052;2023-04-01T02:52:28;95846.03;;;12.06;100.00
56944;BME280;42848;42.524;12.052;2023-04-01T02:54:55;95844.47;;;12.05;100.00
56944;BME280;42848;42.524;12.052;2023-04-01T02:57:21;95825.38;;;12.17;100.00
56944;BME280;42848;42.524;12.052;2023-04-01T02:59:46;95828.16;;;12.05;100.00
56944;BME280;42848;42.524;12.052;2023-04-01T03:02:12;95819.56;;;12.03;100.00
56944;BME280;42848;42.524;12.052;2023-04-01T03:04:38;95823.25;;;11.95;100.00
56944;BME280;42848;42.524;12.052;2023-04-01T03:07:04;95825.06;;;12.07;100.00
56944;BME280;42848;42.524;12.052;2023-04-01T03:09:29;95816.66;;;12.12;100.00
56944;BME280;42848;42.524;12.052;2023-04-01T03:11:55;95820.69;;;12.02;100.00
56944;BME280;42848;42.524;12.052;2023-04-01T03:14:21;95837.28;;;11.97;100.00
56944;BME280;42848;42.524;12.052;2023-04-01T03:16:47;95838.84;;;11.82;100.00
56944;BME280;42848;42.524;12.052;2023-04-01T03:19:13;95838.88;;;11.98;100.00
56944;BME280;42848;42.524;12.052;2023-04-01T03:21:39;95837.28;;;11.97;100.00
56944;BME280;42848;42.524;12.052;2023-04-01T03:24:05;95830.34;;;11.84;100.00
56944;BME280;42848;42.524;12.052;2023-04-01T03:26:31;95830.97;;;11.93;100.00
56944;BME280;42848;42.524;12.052;2023-04-01T03:28:57;95812.72;;;11.93;100.00
56944;BME280;42848;42.524;12.052;2023-04-01T03:31:23;95803.38;;;11.79;100.00
56944;BME280;42848;42.524;12.052;2023-04-01T03:33:50;95805.53;;;11.57;100.00
56944;BME280;42848;42.524;12.052;2023-04-01T03:36:16;95813.63;;;11.54;100.00
56944;BME280;42848;42.524;12.052;2023-04-01T03:38:43;95827.53;;;11.80;100.00
56944;BME280;42848;42.524;12.052;2023-04-01T03:41:16;95845.03;;;11.39;100.00
56944;BME280;42848;42.524;12.052;2023-04-01T03:43:43;95856.25;;;11.37;100.00
56944;BME280;42848;42.524;12.052;2023-04-01T03:46:08;95865.41;;;11.05;100.00
56944;BME280;42848;42.524;12.052;2023-04-01T03:48:34;95862.25;;;11.43;100.00
56944;BME280;42848;42.524;12.052;2023-04-01T03:51:00;95856.91;;;11.19;100.00
56944;BME280;42848;42.524;12.052;2023-04-01T03:53:26;95830.91;;;11.61;100.00
56944;BME280;42848;42.524;12.052;2023-04-01T03:55:53;95809.75;;;11.55;100.00
56944;BME280;42848;42.524;12.052;2023-04-01T03:58:19;95800.50;;;11.28;100.00
56944;BME280;42848;42.524;12.052;2023-04-01T04:00:45;95809.78;;;11.43;100.00
56944;BME280;42848;42.524;12.052;2023-04-01T04:03:11;95816.41;;;11.57;100.00
56944;BME280;42848;42.524;12.052;2023-04-01T04:05:37;95829.53;;;11.39;100.00
56944;BME280;42848;42.524;12.052;2023-04-01T04:08:03;95830.44;;;11.59;100.00
56944;BME280;42848;42.524;12.052;2023-04-01T04:10:28;95823.22;;;11.35;100.00
56944;BME280;42848;42.524;12.052;2023-04-01T04:12:55;95815.41;;;11.34;100.00
56944;BME280;42848;42.524;12.052;2023-04-01T04:15:21;95817.97;;;11.15;100.00
56944;BME280;42848;42.524;12.052;2023-04-01T04:17:48;95807.78;;;11.11;100.00
56944;BME280;42848;42.524;12.052;2023-04-01T04:20:13;95816.47;;;10.89;100.00
56944;BME280;42848;42.524;12.052;2023-04-01T04:22:39;95809.47;;;10.88;100.00
56944;BME280;42848;42.524;12.052;2023-04-01T04:25:06;95817.63;;;10.88;100.00
56944;BME280;42848;42.524;12.052;2023-04-01T04:27:33;95811.84;;;10.90;100.00
56944;BME280;42848;42.524;12.052;2023-04-01T04:29:58;95807.84;;;10.99;100.00
56944;BME280;42848;42.524;12.052;2023-04-01T04:32:24;95805.72;;;10.93;100.00
56944;BME280;42848;42.524;12.052;2023-04-01T04:34:50;95803.34;;;10.91;100.00
56944;BME280;42848;42.524;12.052;2023-04-01T04:37:15;95819.41;;;10.84;100.00
56944;BME280;42848;42.524;12.052;2023-04-01T04:39:41;95811.94;;;10.93;100.00
56944;BME280;42848;42.524;12.052;2023-04-01T04:42:07;95810.72;;;10.78;100.00
56944;BME280;42848;42.524;12.052;2023-04-01T04:44:32;95804.03;;;10.88;100.00
56944;BME280;42848;42.524;12.052;2023-04-01T04:46:58;95805.06;;;10.83;100.00
56944;BME280;42848;42.524;12.052;2023-04-01T04:49:24;95791.03;;;10.81;100.00
56944;BME280;42848;42.524;12.052;2023-04-01T04:51:49;95807.03;;;10.71;100.00
56944;BME280;42848;42.524;12.052;2023-04-01T04:54:15;95804.97;;;10.80;100.00
56944;BME280;42848;42.524;12.052;2023-04-01T04:56:41;95813.34;;;10.75;100.00
56944;BME280;42848;42.524;12.052;2023-04-01T04:59:07;95798.41;;;10.69;100.00
56944;BME280;42848;42.524;12.052;2023-04-01T05:01:33;95811.19;;;10.68;100.00
56944;BME280;42848;42.524;12.052;2023-04-01T05:03:59;95821.06;;;10.61;100.00
56944;BME280;42848;42.524;12.052;2023-04-01T05:06:25;95824.63;;;10.77;100.00
56944;BME280;42848;42.524;12.052;2023-04-01T05:08:54;95832.13;;;10.68;100.00
56944;BME280;42848;42.524;12.052;2023-04-01T05:11:20;95824.31;;;10.66;100.00
56944;BME280;42848;42.524;12.052;2023-04-01T05:13:46;95821.72;;;10.58;100.00
56944;BME280;42848;42.524;12.052;2023-04-01T05:16:15;95830.09;;;10.65;100.00
56944;BME280;42848;42.524;12.052;2023-04-01T05:18:41;95826.50;;;10.61;100.00
56944;BME280;42848;42.524;12.052;2023-04-01T05:21:09;95839.81;;;10.66;100.00
56944;BME280;42848;42.524;12.052;2023-04-01T05:23:36;95841.16;;;10.60;100.00
56944;BME280;42848;42.524;12.052;2023-04-01T05:26:06;95835.97;;;10.67;100.00
56944;BME280;42848;42.524;12.052;2023-04-01T05:28:32;95853.03;;;10.67;100.00
56944;BME280;42848;42.524;12.052;2023-04-01T05:30:59;95851.47;;;10.66;100.00
56944;BME280;42848;42.524;12.052;2023-04-01T05:33:26;95847.84;;;10.74;100.00
56944;BME280;42848;42.524;12.052;2023-04-01T05:35:53;95842.50;;;10.78;100.00
56944;BME280;42848;42.524;12.052;2023-04-01T05:38:20;95846.81;;;10.79;100.00
56944;BME280;42848;42.524;12.052;2023-04-01T05:40:45;95845.13;;;10.74;100.00
56944;BME280;42848;42.524;12.052;2023-04-01T05:43:11;95842.41;;;10.74;100.00
56944;BME280;42848;42.524;12.052;2023-04-01T05:45:37;95852.94;;;10.64;100.00
56944;BME280;42848;42.524;12.052;2023-04-01T05:48:03;95861.31;;;10.71;100.00
56944;BME280;42848;42.524;12.052;2023-04-01T05:50:29;95861.06;;;10.76;100.00
56944;BME280;42848;42.524;12.052;2023-04-01T05:52:55;95868.75;;;10.74;100.00
56944;BME280;42848;42.524;12.052;2023-04-01T05:55:21;95875.28;;;10.85;100.00
56944;BME280;42848;42.524;12.052;2023-04-01T05:57:47;95882.13;;;10.79;100.00
56944;BME280;42848;42.524;12.052;2023-04-01T06:00:15;95881.28;;;10.91;100.00
56944;BME280;42848;42.524;12.052;2023-04-01T06:02:41;95886.16;;;10.85;100.00
56944;BME280;42848;42.524;12.052;2023-04-01T06:07:44;95910.13;;;11.07;100.00
56944;BME280;42848;42.524;12.052;2023-04-01T06:10:20;95901.94;;;11.20;100.00
56944;BME280;42848;42.524;12.052;2023-04-01T06:12:55;95901.72;;;11.13;100.00
56944;BME280;42848;42.524;12.052;2023-04-01T06:15:48;95910.00;;;11.16;100.00
56944;BME280;42848;42.524;12.052;2023-04-01T06:42:31;95927.56;;;11.47;100.00
56944;BME280;42848;42.524;12.052;2023-04-01T06:50:39;95944.88;;;11.54;100.00
56944;BME280;42848;42.524;12.052;2023-04-01T06:53:23;95948.94;;;11.48;100.00
56944;BME280;42848;42.524;12.052;2023-04-01T06:56:00;95944.31;;;11.77;100.00
56944;BME280;42848;42.524;12.052;2023-04-01T06:58:49;95941.41;;;11.69;100.00
56944;BME280;42848;42.524;12.052;2023-04-01T07:01:22;95941.84;;;11.84;100.00
56944;BME280;42848;42.524;12.052;2023-04-01T07:06:39;95950.03;;;11.59;100.00
56944;BME280;42848;42.524;12.052;2023-04-01T07:09:16;95940.59;;;11.81;100.00
56944;BME280;42848;42.524;12.052;2023-04-01T07:11:43;95949.75;;;11.77;100.00
56944;BME280;42848;42.524;12.052;2023-04-01T07:16:47;95947.78;;;11.61;100.00
56944;BME280;42848;42.524;12.052;2023-04-01T07:21:54;95965.88;;;11.69;100.00
56944;BME280;42848;42.524;12.052;2023-04-01T07:24:33;95967.03;;;11.96;100.00
56944;BME280;42848;42.524;12.052;2023-04-01T07:27:00;95980.41;;;12.02;100.00
56944;BME280;42848;42.524;12.052;2023-04-01T07:29:26;95981.91;;;11.87;100.00
56944;BME280;42848;42.524;12.052;2023-04-01T07:32:02;95986.94;;;11.73;100.00
56944;BME280;42848;42.524;12.052;2023-04-01T07:34:55;95984.63;;;11.87;100.00
56944;BME280;42848;42.524;12.052;2023-04-01T07:52:19;95976.63;;;12.06;100.00
56944;BME280;42848;42.524;12.052;2023-04-01T07:55:23;95969.25;;;12.07;100.00
56944;BME280;42848;42.524;12.052;2023-04-01T08:00:58;95985.63;;;12.22;100.00
56944;BME280;42848;42.524;12.052;2023-04-01T08:03:52;95992.25;;;12.37;100.00
56944;BME280;42848;42.524;12.052;2023-04-01T08:09:44;95981.31;;;12.21;100.00
56944;BME280;42848;42.524;12.052;2023-04-01T08:15:26;95976.94;;;12.33;100.00
56944;BME280;42848;42.524;12.052;2023-04-01T08:18:22;95982.56;;;12.40;100.00
56944;BME280;42848;42.524;12.052;2023-04-01T08:21:06;95983.38;;;12.40;100.00
56944;BME280;42848;42.524;12.052;2023-04-01T08:23:43;95981.44;;;12.41;100.00
56944;BME280;42848;42.524;12.052;2023-04-01T08:26:37;95981.81;;;12.55;100.00
56944;BME280;42848;42.524;12.052;2023-04-01T08:29:21;95990.69;;;12.68;100.00
56944;BME280;42848;42.524;12.052;2023-04-01T08:32:03;95996.91;;;12.68;100.00
56944;BME280;42848;42.524;12.052;2023-04-01T08:34:37;95997.63;;;12.65;100.00
56944;BME280;42848;42.524;12.052;2023-04-01T08:37:20;95998.34;;;12.62;100.00
56944;BME280;42848;42.524;12.052;2023-04-01T08:39:57;96003.25;;;12.72;100.00
56944;BME280;42848;42.524;12.052;2023-04-01T08:45:56;96001.41;;;12.76;100.00
56944;BME280;42848;42.524;12.052;2023-04-01T08:51:53;96000.00;;;12.67;100.00
56944;BME280;42848;42.524;12.052;2023-04-01T08:59:50;96006.75;;;12.89;100.00
56944;BME280;42848;42.524;12.052;2023-04-01T09:02:39;95999.28;;;13.01;100.00
56944;BME280;42848;42.524;12.052;2023-04-01T09:08:12;96000.53;;;13.20;100.00
56944;BME280;42848;42.524;12.052;2023-04-01T09:10:59;96008.50;;;13.28;100.00
56944;BME280;42848;42.524;12.052;2023-04-01T09:22:27;96003.53;;;12.99;100.00
56944;BME280;42848;42.524;12.052;2023-04-01T09:27:44;96016.94;;;13.23;100.00
56944;BME280;42848;42.524;12.052;2023-04-01T09:33:53;96004.47;;;13.22;100.00
56944;BME280;42848;42.524;12.052;2023-04-01T09:36:43;96005.38;;;13.26;100.00
56944;BME280;42848;42.524;12.052;2023-04-01T09:42:41;95999.78;;;13.38;100.00
56944;BME280;42848;42.524;12.052;2023-04-01T10:08:58;95963.66;;;13.80;100.00
56944;BME280;42848;42.524;12.052;2023-04-01T10:14:55;95969.78;;;13.74;99.62
56944;BME280;42848;42.524;12.052;2023-04-01T10:20:54;95960.78;;;13.92;100.00
56944;BME280;42848;42.524;12.052;2023-04-01T10:27:21;95964.94;;;14.06;100.00
56944;BME280;42848;42.524;12.052;2023-04-01T10:30:04;95955.34;;;13.92;98.34
56944;BME280;42848;42.524;12.052;2023-04-01T10:35:58;95955.75;;;13.94;95.81
56944;BME280;42848;42.524;12.052;2023-04-01T10:50:19;95951.94;;;14.18;94.77
56944;BME280;42848;42.524;12.052;2023-04-01T10:56:11;95944.25;;;14.05;97.74
56944;BME280;42848;42.524;12.052;2023-04-01T11:10:21;95954.69;;;14.41;100.00
56944;BME280;42848;42.524;12.052;2023-04-01T11:22:12;95946.28;;;14.50;100.00
56944;BME280;42848;42.524;12.052;2023-04-01T11:27:35;95950.22;;;14.75;100.00
56944;BME280;42848;42.524;12.052;2023-04-01T11:30:09;95948.16;;;14.69;97.44
56944;BME280;42848;42.524;12.052;2023-04-01T11:35:33;95943.03;;;14.90;100.00
56944;BME280;42848;42.524;12.052;2023-04-01T11:44:22;95926.97;;;15.12;95.11
56944;BME280;42848;42.524;12.052;2023-04-01T11:52:53;95922.13;;;15.28;89.22
56944;BME280;42848;42.524;12.052;2023-04-01T12:01:10;95925.25;;;15.56;99.56
56944;BME280;42848;42.524;12.052;2023-04-01T12:23:36;95896.41;;;15.62;100.00
56944;BME280;42848;42.524;12.052;2023-04-01T12:26:15;95913.22;;;15.34;100.00
56944;BME280;42848;42.524;12.052;2023-04-01T12:29:03;95902.59;;;15.56;100.00
56944;BME280;42848;42.524;12.052;2023-04-01T12:31:52;95902.81;;;15.74;96.73
56944;BME280;42848;42.524;12.052;2023-04-01T12:42:39;95895.13;;;15.83;100.00
56944;BME280;42848;42.524;12.052;2023-04-01T12:50:56;95893.81;;;15.43;97.72
56944;BME280;42848;42.524;12.052;2023-04-01T12:59:36;95876.38;;;15.85;100.00
56944;BME280;42848;42.524;12.052;2023-04-01T13:02:18;95873.75;;;15.99;100.00
56944;BME280;42848;42.524;12.052;2023-04-01T13:07:55;95878.53;;;15.69;100.00
56944;BME280;42848;42.524;12.052;2023-04-01T13:10:51;95869.31;;;15.84;100.00
56944;BME280;42848;42.524;12.052;2023-04-01T13:16:22;95883.94;;;15.99;100.00
56944;BME280;42848;42.524;12.052;2023-04-01T13:21:21;95874.47;;;15.59;100.00
56944;BME280;42848;42.524;12.052;2023-04-01T13:29:42;95873.25;;;15.86;100.00
56944;BME280;42848;42.524;12.052;2023-04-01T13:35:16;95869.59;;;16.12;100.00
56944;BME280;42848;42.524;12.052;2023-04-01T13:40:49;95875.50;;;16.14;99.27
56944;BME280;42848;42.524;12.052;2023-04-01T13:43:29;95863.38;;;16.15;94.63
56944;BME280;42848;42.524;12.052;2023-04-01T13:49:23;95861.81;;;16.18;96.07
56944;BME280;42848;42.524;12.052;2023-04-01T13:55:14;95849.66;;;16.60;96.38
56944;BME280;42848;42.524;12.052;2023-04-01T14:06:46;95848.13;;;16.62;97.27
56944;BME280;42848;42.524;12.052;2023-04-01T14:20:32;95844.81;;;16.39;97.83
56944;BME280;42848;42.524;12.052;2023-04-01T14:23:42;95835.34;;;16.29;95.33
56944;BME280;42848;42.524;12.052;2023-04-01T14:26:27;95828.28;;;16.28;94.78
56944;BME280;42848;42.524;12.052;2023-04-01T14:29:22;95821.41;;;16.48;90.07
56944;BME280;42848;42.524;12.052;2023-04-01T14:32:06;95819.00;;;16.43;88.91
56944;BME280;42848;42.524;12.052;2023-04-01T14:34:59;95822.31;;;16.67;87.64
56944;BME280;42848;42.524;12.052;2023-04-01T14:40:26;95812.75;;;16.43;85.46
56944;BME280;42848;42.524;12.052;2023-04-01T14:43:25;95804.31;;;16.66;82.46
56944;BME280;42848;42.524;12.052;2023-04-01T14:49:17;95810.69;;;16.77;74.63
56944;BME280;42848;42.524;12.052;2023-04-01T14:51:45;95815.22;;;16.55;73.69
56944;BME280;42848;42.524;12.052;2023-04-01T14:56:47;95817.56;;;16.60;70.27
56944;BME280;42848;42.524;12.052;2023-04-01T15:15:54;95828.31;;;16.32;92.83
56944;BME280;42848;42.524;12.052;2023-04-01T15:18:59;95827.50;;;16.28;93.72
56944;BME280;42848;42.524;12.052;2023-04-01T15:21:32;95824.44;;;16.36;93.57
56944;BME280;42848;42.524;12.052;2023-04-01T15:24:21;95818.81;;;16.18;94.19
56944;BME280;42848;42.524;12.052;2023-04-01T15:27:04;95823.78;;;16.06;96.57
56944;BME280;42848;42.524;12.052;2023-04-01T15:29:51;95821.19;;;16.24;94.98
56944;BME280;42848;42.524;12.052;2023-04-01T15:37:57;95832.19;;;16.27;93.97
56944;BME280;42848;42.524;12.052;2023-04-01T15:43:48;95831.38;;;16.27;94.51
56944;BME280;42848;42.524;12.052;2023-04-01T15:46:44;95830.59;;;16.26;94.55
56944;BME280;42848;42.524;12.052;2023-04-01T15:49:42;95824.53;;;16.47;95.39
56944;BME280;42848;42.524;12.052;2023-04-01T15:52:15;95825.91;;;16.27;95.19
56944;BME280;42848;42.524;12.052;2023-04-01T16:02:51;95818.59;;;15.97;100.00
56944;BME280;42848;42.524;12.052;2023-04-01T16:06:00;95825.03;;;15.75;100.00
56944;BME280;42848;42.524;12.052;2023-04-01T16:08:54;95840.25;;;15.72;100.00
56944;BME280;42848;42.524;12.052;2023-04-01T16:14:29;95833.94;;;15.64;100.00
56944;BME280;42848;42.524;12.052;2023-04-01T16:17:09;95837.50;;;15.39;100.00
56944;BME280;42848;42.524;12.052;2023-04-01T16:22:39;95824.44;;;15.25;100.00
56944;BME280;42848;42.524;12.052;2023-04-01T16:25:32;95815.31;;;14.84;100.00
56944;BME280;42848;42.524;12.052;2023-04-01T16:30:38;95817.34;;;14.90;100.00
56944;BME280;42848;42.524;12.052;2023-04-01T16:36:29;95825.81;;;14.82;100.00
56944;BME280;42848;42.524;12.052;2023-04-01T16:39:27;95825.13;;;14.62;100.00
56944;BME280;42848;42.524;12.052;2023-04-01T16:44:49;95816.47;;;14.83;100.00
56944;BME280;42848;42.524;12.052;2023-04-01T16:47:27;95816.34;;;15.02;100.00
56944;BME280;42848;42.524;12.052;2023-04-01T16:50:00;95809.19;;;14.64;100.00
56944;BME280;42848;42.524;12.052;2023-04-01T16:52:40;95817.34;;;14.90;100.00
56944;BME280;42848;42.524;12.052;2023-04-01T16:55:20;95814.88;;;14.32;100.00
56944;BME280;42848;42.524;12.052;2023-04-01T16:57:51;95808.22;;;14.52;100.00
56944;BME280;42848;42.524;12.052;2023-04-01T17:02:57;95810.75;;;14.65;100.00
56944;BME280;42848;42.524;12.052;2023-04-01T17:11:16;95823.56;;;14.38;100.00
56944;BME280;42848;42.524;12.052;2023-04-01T17:13:56;95818.19;;;14.18;100.00
56944;BME280;42848;42.524;12.052;2023-04-01T17:47:02;95849.09;;;14.26;100.00
56944;BME280;42848;42.524;12.052;2023-04-01T17:49:38;95851.84;;;14.26;100.00
56944;BME280;42848;42.524;12.052;2023-04-01T17:57:54;95866.22;;;13.38;100.00
56944;BME280;42848;42.524;12.052;2023-04-01T18:12:09;95878.03;;;13.85;100.00
56944;BME280;42848;42.524;12.052;2023-04-01T18:14:38;95876.25;;;13.73;100.00
56944;BME280;42848;42.524;12.052;2023-04-01T18:17:23;95881.53;;;13.85;100.00
56944;BME280;42848;42.524;12.052;2023-04-01T18:23:02;95887.56;;;13.94;100.00
56944;BME280;42848;42.524;12.052;2023-04-01T18:29:19;95876.25;;;13.73;100.00
56944;BME280;42848;42.524;12.052;2023-04-01T18:31:18;95876.53;;;13.68;100.00
56944;BME280;42848;42.524;12.052;2023-04-01T18:33:49;95886.72;;;13.32;100.00
56944;BME280;42848;42.524;12.052;2023-04-01T18:36:32;95887.03;;;13.47;100.00
56944;BME280;42848;42.524;12.052;2023-04-01T18:39:02;95882.28;;;13.63;100.00
56944;BME280;42848;42.524;12.052;2023-04-01T18:41:42;95878.31;;;13.60;100.00
56944;BME280;42848;42.524;12.052;2023-04-01T18:44:34;95887.59;;;13.56;100.00
56944;BME280;42848;42.524;12.052;2023-04-01T18:50:11;95896.56;;;13.37;100.00
56944;BME280;42848;42.524;12.052;2023-04-01T18:52:41;95896.72;;;13.44;100.00
56944;BME280;42848;42.524;12.052;2023-04-01T18:55:22;95893.31;;;13.31;100.00
56944;BME280;42848;42.524;12.052;2023-04-01T18:58:11;95895.19;;;13.12;100.00
56944;BME280;42848;42.524;12.052;2023-04-01T19:00:45;95893.31;;;13.31;100.00
56944;BME280;42848;42.524;12.052;2023-04-01T19:05:45;95900.50;;;12.89;100.00
56944;BME280;42848;42.524;12.052;2023-04-01T19:08:51;95897.59;;;12.62;100.00
56944;BME280;42848;42.524;12.052;2023-04-01T19:11:31;95904.84;;;12.90;100.00
56944;BME280;42848;42.524;12.052;2023-04-01T19:14:24;95907.09;;;12.88;100.00
56944;BME280;42848;42.524;12.052;2023-04-01T19:19:52;95897.38;;;12.71;100.00
56944;BME280;42848;42.524;12.052;2023-04-01T19:22:22;95893.25;;;12.61;100.00
56944;BME280;42848;42.524;12.052;2023-04-01T19:25:23;95893.59;;;12.75;100.00
56944;BME280;42848;42.524;12.052;2023-04-01T19:27:53;95896.16;;;12.52;100.00
56944;BME280;42848;42.524;12.052;2023-04-01T19:30:50;95897.59;;;12.97;100.00
56944;BME280;42848;42.524;12.052;2023-04-01T19:36:28;95911.34;;;12.69;100.00
56944;BME280;42848;42.524;12.052;2023-04-01T19:42:17;95913.56;;;12.64;100.00
56944;BME280;42848;42.524;12.052;2023-04-01T19:44:58;95906.38;;;12.56;100.00
56944;BME280;42848;42.524;12.052;2023-04-01T19:52:49;95919.44;;;12.50;100.00
56944;BME280;42848;42.524;12.052;2023-04-01T19:55:33;95912.72;;;12.44;100.00
56944;BME280;42848;42.524;12.052;2023-04-01T19:58:11;95922.97;;;12.66;100.00
56944;BME280;42848;42.524;12.052;2023-04-01T20:00:51;95918.66;;;12.65;100.00
56944;BME280;42848;42.524;12.052;2023-04-01T20:12:00;95921.63;;;12.76;100.00
56944;BME280;42848;42.524;12.052;2023-04-01T20:14:51;95916.72;;;12.66;100.00
56944;BME280;42848;42.524;12.052;2023-04-01T20:17:21;95910.50;;;12.65;100.00
56944;BME280;42848;42.524;12.052;2023-04-01T20:19:57;95902.44;;;12.53;100.00
56944;BME280;42848;42.524;12.052;2023-04-01T20:24:58;95898.88;;;12.05;100.00
56944;BME280;42848;42.524;12.052;2023-04-01T20:27:33;95898.47;;;12.35;100.00
56944;BME280;42848;42.524;12.052;2023-04-01T20:44:17;95892.72;;;10.84;100.00
56944;BME280;42848;42.524;12.052;2023-04-01T20:49:40;95893.25;;;11.70;100.00
56944;BME280;42848;42.524;12.052;2023-04-01T20:55:06;95904.94;;;11.71;100.00
56944;BME280;42848;42.524;12.052;2023-04-01T20:57:44;95914.13;;;11.94;100.00
56944;BME280;42848;42.524;12.052;2023-04-01T21:01:00;95907.91;;;11.93;100.00
56944;BME280;42848;42.524;12.052;2023-04-01T21:19:24;95939.31;;;10.98;100.00
56944;BME280;42848;42.524;12.052;2023-04-01T21:27:57;95926.34;;;11.32;100.00
56944;BME280;42848;42.524;12.052;2023-04-01T21:33:32;95924.81;;;11.19;100.00
56944;BME280;42848;42.524;12.052;2023-04-01T22:04:54;95907.69;;;10.53;100.00